Latest Coastal Weather Observations for Proserpine

IDQ60701

Issued at 6:45 am EST Tuesday 29 July 2014 (issued every 10 minutes, with the page automatically refreshed every 10 minutes)

About coastal observations | Map of coastal stations | Coastal observations for QLD | Marine services | Other Formats
Station Details ID: 033247 Name: PROSERPINE AIRPORT Lat: -20.49 Lon: 148.56 Height: 19.7 m
Data from the previous 72 hours. | See also: Recent months at Proserpine
Date/Time
EST
Temp

°C
Wind Pressure Rain
since 9am
mm
Weather Cloud Vis
km
Sea
Height
m
Swell
Dir
 
Speed
knots
Gust
knots
hPa Trend Height
m
Period
s
Dir
29/06:30am 10.2 S 3 4 1022.1 - 0.0 - - 10 - - - -
29/06:26am 10.4 S 4 4 1022.1 - 0.0 - - 10 - - - -
29/06:07am 9.7 SSW 4 4 1022.0 - 0.0 - - 6 - - - -
29/06:00am 10.1 SSW 4 5 1021.8 - 0.0 - - 10 - - - -
29/05:30am 10.0 SW 1 4 1021.7 - 0.0 - - 10 - - - -
29/05:00am 9.8 CALM 0 0 1021.6 - 0.0 - - 10 - - - -
29/04:33am 9.9 CALM 0 0 1021.4 - 0.0 - - 10 - - - -
29/04:30am 9.9 CALM 0 0 1021.3 - 0.0 - - 10 - - - -
29/04:14am 11.2 CALM 0 0 1021.2 - 0.0 - - 6 - - - -
29/04:00am 11.4 SW 2 3 1021.2 - 0.0 - - 10 - - - -
29/03:30am 12.1 SW 4 5 1021.2 - 0.0 - - 10 - - - -
29/03:00am 12.7 CALM 0 0 1021.1 - 0.0 - - 10 - - - -
29/02:32am 13.7 CALM 0 0 1021.2 - 0.0 - Partly cloudy 10 - - - -
29/02:30am 13.7 CALM 0 3 1021.2 - 0.0 - Partly cloudy 10 - - - -
29/02:00am 14.7 SW 1 3 1021.1 - 0.0 - Cloudy 10 - - - -
29/01:30am 14.4 CALM 0 3 1021.4 - 0.0 - Partly cloudy 10 - - - -
29/01:00am 14.2 SSW 5 6 1021.4 - 0.0 - Partly cloudy 10 - - - -
29/12:38am 13.5 SSW 6 7 1021.5 - 0.0 - Partly cloudy 10 - - - -
29/12:30am 13.6 SSW 7 8 1021.5 - 0.0 - Partly cloudy 10 - - - -
29/12:05am 13.5 SSW 6 7 1021.7 - 0.0 - Partly cloudy 10 - - - -
29/12:00am 13.4 SSW 5 6 1021.6 - 0.0 - Mostly clear 10 - - - -
 
Date/Time
EST
Temp

°C
Wind Pressure Rain
since 9am
mm
Weather Cloud Vis
km
Sea
Height
m
Swell
Dir
 
Speed
knots
Gust
knots
hPa Trend Height
m
Period
s
Dir
28/11:30pm 14.0 SW 2 4 1021.7 - 0.0 - Partly cloudy 10 - - - -
28/11:20pm 13.8 SW 2 3 1021.8 - 0.0 - Partly cloudy 10 - - - -
28/11:01pm 13.8 SSW 3 5 1021.8 - 0.0 - Partly cloudy 10 - - - -
28/11:00pm 13.8 SSW 3 5 1021.8 - 0.0 - Partly cloudy 10 - - - -
28/10:30pm 13.8 S 4 4 1021.8 - 0.0 - Partly cloudy 10 - - - -
28/10:26pm 13.6 SSW 4 5 1021.9 - 0.0 - Partly cloudy 10 - - - -
28/10:00pm 14.0 SW 4 4 1021.9 - 0.0 - - 10 - - - -
28/09:30pm 14.3 SSW 4 5 1022.0 - 0.0 - - 10 - - - -
28/09:00pm 15.1 SSW 4 4 1021.9 - 0.0 - - 10 - - - -
28/08:30pm 15.3 S 3 4 1021.7 - 0.0 - - 10 - - - -
28/08:00pm 15.7 S 5 5 1021.6 - 0.0 - - 10 - - - -
28/07:30pm 15.8 S 3 5 1021.3 - 0.0 - - 10 - - - -
28/07:00pm 17.5 SSE 3 4 1020.9 - 0.0 - - 10 - - - -
28/06:30pm 18.0 SSE 4 5 1020.7 - 0.0 - - 10 - - - -
28/06:00pm 18.7 SE 5 7 1020.2 - 0.0 - - 10 - - - -
28/05:30pm 20.7 ESE 8 11 1020.1 - 0.0 - - 10 - - - -
28/05:00pm 22.2 E 10 13 1019.9 - 0.0 - Partly cloudy 10 - - - -
28/04:30pm 22.9 E 9 12 1019.7 - 0.0 - Partly cloudy 10 - - - -
28/04:00pm 23.3 E 10 14 1019.6 - 0.0 - Partly cloudy 10 - - - -
28/03:30pm 23.6 ESE 12 17 1019.4 - 0.0 - - 10 - - - -
28/03:00pm 24.2 E 12 16 1019.4 - 0.0 Fine Mostly clear 30 - - - -
28/02:30pm 24.5 E 12 17 1019.6 - 0.0 - - 10 - - - -
28/02:00pm 24.5 E 14 17 1019.9 - 0.0 - - 10 - - - -
28/01:30pm 23.7 E 14 20 1020.4 - 0.0 - - 10 - - - -
28/01:00pm 24.0 ESE 13 18 1020.7 - 0.0 - - 10 - - - -
28/12:30pm 24.3 ESE 13 18 1021.1 - 0.0 - - 10 - - - -
28/12:00pm 23.4 ESE 13 18 1021.4 - 0.0 - - 10 - - - -
28/11:30am 23.6 ESE 12 17 1021.9 - 0.0 - - 10 - - - -
28/11:00am 23.2 ESE 11 16 1022.3 - 0.0 - - 10 - - - -
28/10:30am 23.3 ESE 10 15 1022.8 - 0.0 - - 10 - - - -
28/10:00am 22.9 ESE 10 15 1022.9 - 0.0 - Partly cloudy 10 - - - -
28/09:39am 22.0 ESE 7 11 1023.0 - 0.0 - Partly cloudy 10 - - - -
28/09:30am 21.1 ESE 5 7 1023.1 - 0.0 - Partly cloudy 10 - - - -
28/09:00am 19.1 S 6 7 1023.0 - 0.0 Fine Partly cloudy 25 - - - -
28/08:49am 18.6 S 6 7 1023.0 - 0.0 - Partly cloudy 10 - - - -
28/08:30am 17.3 S 5 6 1023.0 - 0.0 - Cloudy 10 - - - -
28/08:00am 15.3 SSW 4 5 1022.7 - 0.0 - Partly cloudy 10 - - - -
28/07:53am 15.1 SSW 4 5 1022.7 - 0.0 - Partly cloudy 10 - - - -
28/07:30am 14.7 SSW 4 5 1022.5 - 0.0 - Cloudy 10 - - - -
28/07:00am 14.3 SW 5 6 1022.3 - 0.0 - Partly cloudy 10 - - - -
28/06:40am 13.9 SW 5 6 1022.1 - 0.0 - Partly cloudy 10 - - - -
28/06:30am 13.6 W 2 4 1022.0 - 0.0 - Cloudy 10 - - - -
28/06:00am 13.2 SW 4 5 1021.6 - 0.0 - Mostly cloudy 10 - - - -
28/05:30am 13.2 SSW 5 6 1021.5 - 0.0 - Partly cloudy 10 - - - -
28/05:00am 12.4 SSW 6 8 1021.3 - 0.0 - Partly cloudy 10 - - - -
28/04:37am 12.6 SSW 4 5 1021.2 - 0.0 - Partly cloudy 10 - - - -
28/04:30am 12.4 SSW 4 5 1021.2 - 0.0 - Partly cloudy 10 - - - -
28/04:10am 11.8 S 4 5 1021.1 - 0.0 - Partly cloudy 10 - - - -
28/04:00am 12.0 SSW 3 4 1021.1 - 0.0 - - 6 - - - -
28/03:53am 11.6 SW 2 4 1021.1 - 0.0 - - 6 - - - -
28/03:30am 11.8 CALM 0 3 1021.0 - 0.0 - Partly cloudy 10 - - - -
28/03:00am 12.7 SSW 4 4 1021.0 - 0.0 - Mostly cloudy 10 - - - -
28/02:30am 11.2 WSW 1 4 1021.3 - 0.0 - Partly cloudy 10 - - - -
28/02:00am 10.9 W 3 5 1021.4 - 0.0 - - 10 - - - -
28/01:30am 12.8 S 4 5 1021.7 - 0.0 - - 10 - - - -
28/01:29am 12.8 S 4 6 1021.7 - 0.0 - - 10 - - - -
28/01:07am 12.2 CALM 0 3 1021.9 - 0.0 - - 4 - - - -
28/01:00am 12.3 CALM 0 0 1022.0 - 0.0 - - 10 - - - -
28/12:50am 12.1 CALM 0 0 1022.0 - 0.0 - - 10 - - - -
28/12:37am 12.4 CALM 0 0 1022.1 - 0.0 - - 6 - - - -
28/12:30am 12.4 CALM 0 0 1022.2 - 0.0 - - 10 - - - -
28/12:18am 12.5 CALM 0 0 1022.3 - 0.0 - - 10 - - - -
28/12:00am 13.0 CALM 0 0 1022.3 - 0.0 - - 1 - - - -
 
Date/Time
EST
Temp

°C
Wind Pressure Rain
since 9am
mm
Weather Cloud Vis
km
Sea
Height
m
Swell
Dir
 
Speed
knots
Gust
knots
hPa Trend Height
m
Period
s
Dir
27/11:57pm 13.0 CALM 0 0 1022.4 - 0.0 - - 3 - - - -
27/11:30pm 14.2 SW 4 5 1022.5 - 0.0 - - 10 - - - -
27/11:00pm 14.3 SSW 4 6 1022.6 - 0.0 - - 10 - - - -
27/10:30pm 14.1 SSW 5 7 1022.6 - 0.0 - - 10 - - - -
27/10:00pm 14.7 S 5 6 1022.8 - 0.0 - - 10 - - - -
27/09:30pm 15.5 S 4 5 1022.8 - 0.0 - - 10 - - - -
27/09:00pm 15.5 SSW 4 5 1022.6 - 0.0 - - 10 - - - -
27/08:30pm 15.6 SSW 6 8 1022.6 - 0.0 - - 10 - - - -
27/08:00pm 16.2 SSW 5 6 1022.4 - 0.0 - - 10 - - - -
27/07:30pm 16.9 S 6 7 1022.1 - 0.0 - - 10 - - - -
27/07:00pm 17.8 S 4 6 1021.7 - 0.0 - - 10 - - - -
27/06:30pm 18.4 S 5 6 1021.2 - 0.0 - - 10 - - - -
27/06:00pm 19.3 SE 9 12 1020.8 - 0.0 - - 10 - - - -
27/05:30pm 20.4 ESE 9 12 1020.5 - 0.0 - - 10 - - - -
27/05:00pm 21.5 E 11 17 1020.2 - 0.0 - - 10 - - - -
27/04:30pm 22.4 ESE 11 16 1020.2 - 0.0 - - 10 - - - -
27/04:00pm 23.6 E 12 18 1020.0 - 0.0 - - 10 - - - -
27/03:30pm 23.9 E 13 17 1019.9 - 0.0 - - 10 - - - -
27/03:00pm 24.2 E 13 17 1019.9 - 0.0 Fine Mostly clear 25 - - - -
27/02:30pm 25.0 E 12 17 1020.0 - 0.0 - - 10 - - - -
27/02:00pm 24.8 E 13 17 1020.4 - 0.0 - - 10 - - - -
27/01:30pm 24.6 E 12 17 1020.7 - 0.0 - - 10 - - - -
27/01:00pm 25.8 E 12 15 1021.1 - 0.0 - - 10 - - - -
27/12:30pm 24.7 E 12 17 1021.6 - 0.0 - - 10 - - - -
27/12:00pm 24.6 ESE 13 20 1021.9 - 0.0 - Mostly clear 10 - - - -
27/11:30am 24.5 ESE 13 17 1022.4 - 0.0 - - 10 - - - -
27/11:00am 24.3 ESE 11 16 1022.6 - 0.0 - - 10 - - - -
27/10:30am 24.6 ESE 11 16 1022.9 - 0.0 - - 10 - - - -
27/10:00am 24.6 ESE 11 16 1023.1 - 0.0 - Partly cloudy 10 - - - -
27/09:30am 22.7 SSE 7 11 1023.3 - 0.0 - Partly cloudy 10 - - - -
27/09:00am 21.6 SSE 8 11 1023.3 - 0.0 Fine Mostly cloudy 25 - - - -
27/08:30am 21.1 S 8 12 1023.1 - 0.0 - Partly cloudy 10 - - - -
27/08:00am 19.7 S 5 8 1023.0 - 0.0 - Cloudy 10 - - - -
27/07:45am 19.3 S 6 8 1023.0 - 0.0 - Partly cloudy 10 - - - -
27/07:30am 19.1 SSE 7 9 1022.8 - 0.0 - Partly cloudy 10 - - - -
27/07:00am 18.8 S 6 9 1022.6 - 0.0 - Cloudy 10 - - - -
27/06:30am 18.6 SSE 6 9 1022.3 - 0.0 - Cloudy 10 - - - -
27/06:00am 17.4 SSE 3 5 1022.0 - 0.0 - Cloudy 10 - - - -
27/05:56am 17.0 SSE 3 5 1022.1 - 0.0 - Partly cloudy 10 - - - -
27/05:30am 17.1 S 4 5 1022.0 - 0.0 - Partly cloudy 10 - - - -
27/05:00am 17.0 S 5 6 1021.8 - 0.0 - Partly cloudy 10 - - - -
27/04:30am 17.4 SSE 6 8 1021.8 - 0.0 - Partly cloudy 10 - - - -
27/04:00am 16.9 S 5 6 1021.6 - 0.0 - Partly cloudy 10 - - - -
27/03:30am 17.9 S 5 7 1021.5 - 0.0 - Partly cloudy 10 - - - -
27/03:00am 18.0 S 6 8 1021.6 - 0.0 - Partly cloudy 10 - - - -
27/02:30am 18.6 S 6 8 1022.1 - 0.0 - Cloudy 10 - - - -
27/02:00am 18.5 S 6 7 1022.2 - 0.0 - Partly cloudy 10 - - - -
27/01:30am 17.9 SSE 2 3 1022.6 - 0.0 - Cloudy 10 - - - -
27/01:00am 17.5 SSW 5 6 1023.1 - 0.0 - Partly cloudy 10 - - - -
27/12:30am 17.8 SW 3 5 1023.5 - 0.0 - - 10 - - - -
27/12:00am 18.6 SSE 6 7 1023.6 - 0.0 - - 10 - - - -
 
Date/Time
EST
Temp

°C
Wind Pressure Rain
since 9am
mm
Weather Cloud Vis
km
Sea
Height
m
Swell
Dir
 
Speed
knots
Gust
knots
hPa Trend Height
m
Period
s
Dir
26/11:30pm 18.5 SSE 6 8 1024.0 - 0.0 - - 10 - - - -
26/11:00pm 18.7 S 6 8 1024.1 - 0.0 - Partly cloudy 10 - - - -
26/10:30pm 18.5 SSE 7 9 1024.2 - 0.0 - - 10 - - - -
26/10:00pm 18.9 SSE 7 9 1024.1 - 0.0 - - 10 - - - -
26/09:30pm 19.3 S 6 8 1024.1 - 0.0 - - 10 - - - -
26/09:00pm 19.4 SSE 7 9 1024.1 - 0.0 - - 10 - - - -
26/08:30pm 19.5 S 5 7 1024.0 - 0.0 - - 10 - - - -
26/08:00pm 19.5 SE 4 6 1024.0 - 0.0 - - 10 - - - -
26/07:30pm 19.6 SE 4 6 1023.9 - 0.0 - - 10 - - - -
26/07:00pm 19.8 SE 6 8 1023.5 - 0.0 - - 10 - - - -
26/06:30pm 19.9 ESE 8 12 1022.9 - 0.0 - - 10 - - - -
26/06:00pm 20.1 ESE 8 11 1022.4 - 0.0 - - 10 - - - -
26/05:30pm 20.6 ESE 9 14 1022.3 - 0.0 - - 10 - - - -
26/05:00pm 21.3 ESE 8 11 1022.1 - 0.0 - - 10 - - - -
26/04:30pm 21.7 E 9 13 1022.0 - 0.0 - - 10 - - - -
26/04:00pm 22.0 E 10 14 1021.9 - 0.0 - - 10 - - - -
26/03:30pm 22.5 ESE 10 14 1021.8 - 0.0 - - 10 - - - -
26/03:00pm 23.4 ESE 11 16 1021.4 - 0.0 Fine Mostly cloudy 25 - - - -
26/02:30pm 23.9 ESE 10 13 1021.7 - 0.0 - - 10 - - - -
26/02:00pm 24.9 ESE 10 15 1022.0 - 0.0 - - 10 - - - -
26/01:30pm 24.2 ESE 9 13 1022.3 - 0.0 - - 10 - - - -
26/01:00pm 24.3 ESE 10 15 1022.6 - 0.0 - Partly cloudy 10 - - - -
26/12:30pm 23.9 ESE 10 13 1023.2 - 0.0 - Partly cloudy 10 - - - -
26/12:00pm 24.6 SE 11 15 1023.5 - 0.0 - Cloudy 10 - - - -
26/11:30am 23.8 ESE 11 17 1024.2 - 0.0 - Partly cloudy 10 - - - -
26/11:00am 23.1 ESE 10 15 1024.4 - 0.0 - Partly cloudy 10 - - - -
26/10:30am 23.2 ESE 11 17 1024.5 - 0.0 - Partly cloudy 10 - - - -
26/10:00am 23.6 ESE 12 15 1024.7 - 0.0 - Partly cloudy 10 - - - -
26/09:30am 22.6 SE 9 13 1024.7 - 0.0 - Partly cloudy 10 - - - -
26/09:00am 21.3 S 9 11 1024.6 - 0.0 Fine Mostly cloudy 25 - - - -
26/08:30am 20.3 S 4 7 1024.3 - 0.0 - - 10 - - - -
26/08:19am 19.5 SSW 4 5 1024.2 - 0.0 - Partly cloudy 10 - - - -
26/08:00am 18.4 S 3 5 1024.3 - 0.0 - Partly cloudy 10 - - - -
26/07:30am 17.2 NNE 1 4 1024.1 - 0.0 - Partly cloudy 10 - - - -
26/07:18am 16.9 CALM 0 4 1024.1 - 0.0 - Partly cloudy 10 - - - -
26/07:00am 16.5 SW 2 4 1023.9 - 0.0 - Cloudy 10 - - - -

Other Formats:

Comma delimited format used in spreadsheet applications
http://www.bom.gov.au/fwo/IDQ60701/IDQ60701.94365.axf

JavaScript Object Notation format (JSON) in row-major order
http://www.bom.gov.au/fwo/IDQ60701/IDQ60701.94365.json